Time;durP1;ratioP1;P1;durP2;ratioP2;P2;SDS_P1;SDS_P2;PMS_P1;PMS_P2;Temp;Humidity;BMP_temperature;BMP_pressure;BME280_temperature;BME280_humidity;BME280_pressure;Samples;Min_cycle;Max_cycle;Signal;HPM_P1;HPM_P2
2023/04/07 00:01:15;;;;;;;26.38;17.02;;;;;;;;;;5094422;28;20075;-73
2023/04/07 00:03:42;;;;;;;25.65;17.17;;;;;;;;;;5098468;28;20044;-73
2023/04/07 00:06:08;;;;;;;26.77;17.83;;;;;;;;;;5096236;28;20147;-73
2023/04/07 00:08:35;;;;;;;24.25;15.55;;;;;;;;;;5096502;28;20044;-73
2023/04/07 00:11:01;;;;;;;27.15;17.08;;;;;;;;;;5093087;28;20051;-72
2023/04/07 00:13:27;;;;;;;23.83;16.17;;;;;;;;;;5096208;28;20036;-73
2023/04/07 00:15:53;;;;;;;26.90;16.73;;;;;;;;;;5094307;28;20044;-73
2023/04/07 00:18:19;;;;;;;26.88;17.52;;;;;;;;;;5092725;28;20109;-73
2023/04/07 00:20:45;;;;;;;25.27;16.42;;;;;;;;;;5092993;28;20884;-73
2023/04/07 00:23:11;;;;;;;25.38;16.95;;;;;;;;;;5092712;28;20049;-73
2023/04/07 00:25:37;;;;;;;24.60;16.90;;;;;;;;;;5081435;28;20120;-73
2023/04/07 00:28:03;;;;;;;24.65;16.95;;;;;;;;;;5095545;28;20051;-73
2023/04/07 00:30:29;;;;;;;25.52;16.90;;;;;;;;;;5088791;28;20087;-73
2023/04/07 00:32:55;;;;;;;25.27;16.60;;;;;;;;;;5077102;28;20044;-74
2023/04/07 00:35:21;;;;;;;24.00;16.27;;;;;;;;;;5094689;28;20055;-74
2023/04/07 00:37:47;;;;;;;25.23;16.20;;;;;;;;;;5095542;28;20078;-74
2023/04/07 00:40:14;;;;;;;25.02;16.50;;;;;;;;;;5091953;28;20041;-74
2023/04/07 00:42:40;;;;;;;24.02;16.00;;;;;;;;;;5095387;28;20048;-74
2023/04/07 00:45:06;;;;;;;22.67;15.48;;;;;;;;;;5094869;28;20040;-74
2023/04/07 00:47:32;;;;;;;26.27;16.80;;;;;;;;;;5082303;28;20041;-73
2023/04/07 00:49:58;;;;;;;23.45;15.52;;;;;;;;;;5074072;28;20107;-74
2023/04/07 00:52:28;;;;;;;25.17;16.27;;;;;;;;;;5074718;28;20122;-74
2023/04/07 00:54:55;;;;;;;25.60;17.20;;;;;;;;;;5079638;28;20040;-74
2023/04/07 00:57:21;;;;;;;28.55;17.33;;;;;;;;;;5084152;28;20115;-74
2023/04/07 00:59:48;;;;;;;27.73;17.63;;;;;;;;;;5081236;28;20102;-74
2023/04/07 01:02:17;;;;;;;26.40;17.10;;;;;;;;;;5089209;28;20106;-74
2023/04/07 01:04:50;;;;;;;28.17;18.30;;;;;;;;;;5074882;28;20040;-74
2023/04/07 01:07:34;;;;;;;28.20;18.45;;;;;;;;;;5074668;28;20534;-74
2023/04/07 01:10:02;;;;;;;27.88;18.73;;;;;;;;;;5074266;28;20106;-74
2023/04/07 01:12:34;;;;;;;29.10;18.63;;;;;;;;;;5074219;28;20051;-74
2023/04/07 01:15:04;;;;;;;31.90;20.27;;;;;;;;;;5075054;28;20060;-73
2023/04/07 01:17:31;;;;;;;32.63;19.63;;;;;;;;;;5086505;28;20048;-73
2023/04/07 01:20:07;;;;;;;30.95;19.88;;;;;;;;;;5092271;28;20119;-73
2023/04/07 01:22:37;;;;;;;30.58;18.77;;;;;;;;;;5090450;28;20036;-73
2023/04/07 01:25:03;;;;;;;31.52;19.88;;;;;;;;;;5086643;28;20058;-73
2023/04/07 01:27:43;;;;;;;32.15;20.35;;;;;;;;;;5090951;28;20420;-73
2023/04/07 01:30:11;;;;;;;32.92;20.67;;;;;;;;;;5093626;28;20048;-73
2023/04/07 01:32:39;;;;;;;31.45;20.15;;;;;;;;;;5074169;28;20094;-73
2023/04/07 01:35:08;;;;;;;33.03;19.70;;;;;;;;;;5074047;28;20119;-73
2023/04/07 01:37:35;;;;;;;31.40;19.10;;;;;;;;;;5074108;28;20108;-73
2023/04/07 01:40:02;;;;;;;34.70;21.00;;;;;;;;;;5074155;28;20093;-73
2023/04/07 01:42:29;;;;;;;30.65;20.33;;;;;;;;;;5086585;28;20387;-73
2023/04/07 01:44:55;;;;;;;35.10;21.33;;;;;;;;;;5086496;28;20040;-73
2023/04/07 01:47:21;;;;;;;31.48;19.58;;;;;;;;;;5073714;28;20407;-73
2023/04/07 01:49:48;;;;;;;34.35;20.60;;;;;;;;;;5089853;28;20048;-73
2023/04/07 01:52:14;;;;;;;37.53;20.63;;;;;;;;;;5092645;28;20466;-72
2023/04/07 01:54:41;;;;;;;35.45;20.95;;;;;;;;;;5094429;28;20036;-73
2023/04/07 01:57:07;;;;;;;31.92;20.60;;;;;;;;;;5081720;28;20150;-73
2023/04/07 01:59:33;;;;;;;33.08;20.40;;;;;;;;;;5072237;28;20051;-73
2023/04/07 02:01:59;;;;;;;31.20;19.45;;;;;;;;;;5090834;28;20040;-73
2023/04/07 02:04:27;;;;;;;33.65;20.40;;;;;;;;;;5076772;28;20547;-74
2023/04/07 02:07:08;;;;;;;26.60;17.17;;;;;;;;;;5073748;28;20076;-73
2023/04/07 02:09:38;;;;;;;33.63;20.60;;;;;;;;;;5081209;28;20078;-73
2023/04/07 02:12:04;;;;;;;32.00;20.63;;;;;;;;;;5088735;28;20536;-74
2023/04/07 02:14:31;;;;;;;35.08;20.75;;;;;;;;;;5090515;28;20036;-74
2023/04/07 02:16:58;;;;;;;33.80;21.38;;;;;;;;;;5073562;28;20095;-74
2023/04/07 02:19:26;;;;;;;33.03;21.08;;;;;;;;;;5091204;28;20075;-73
2023/04/07 02:21:52;;;;;;;31.98;20.38;;;;;;;;;;5093640;28;20055;-74
2023/04/07 02:24:21;;;;;;;34.20;20.70;;;;;;;;;;5093814;28;20048;-74
2023/04/07 02:26:47;;;;;;;34.90;20.50;;;;;;;;;;5088101;28;20125;-73
2023/04/07 02:29:13;;;;;;;31.67;19.70;;;;;;;;;;5075138;28;20109;-74
2023/04/07 02:31:39;;;;;;;32.88;19.80;;;;;;;;;;5093599;28;20044;-74
2023/04/07 02:34:05;;;;;;;31.98;19.63;;;;;;;;;;5093604;28;20538;-74
2023/04/07 02:36:31;;;;;;;33.15;20.42;;;;;;;;;;5093669;28;20048;-73
2023/04/07 02:38:58;;;;;;;34.33;20.85;;;;;;;;;;5092918;28;20044;-74
2023/04/07 02:41:25;;;;;;;36.42;20.52;;;;;;;;;;5091408;28;20114;-74
2023/04/07 02:43:51;;;;;;;32.47;19.27;;;;;;;;;;5073304;28;20375;-73
2023/04/07 02:46:17;;;;;;;34.83;20.27;;;;;;;;;;5073242;28;20043;-73
2023/04/07 02:48:43;;;;;;;36.40;21.83;;;;;;;;;;5073522;28;20041;-73
2023/04/07 02:51:09;;;;;;;33.85;20.67;;;;;;;;;;5091703;28;20048;-73
2023/04/07 02:53:35;;;;;;;35.40;20.75;;;;;;;;;;5093090;28;20131;-74
2023/04/07 02:56:01;;;;;;;33.40;20.83;;;;;;;;;;5085621;28;20071;-74
2023/04/07 02:58:27;;;;;;;31.73;19.77;;;;;;;;;;5073279;28;20044;-74
2023/04/07 03:00:53;;;;;;;36.22;20.95;;;;;;;;;;5084466;28;20044;-74
2023/04/07 03:03:19;;;;;;;35.35;21.23;;;;;;;;;;5093815;28;20044;-74
2023/04/07 03:05:45;;;;;;;31.67;19.85;;;;;;;;;;5094149;28;20087;-74
2023/04/07 03:08:14;;;;;;;34.72;20.50;;;;;;;;;;5077499;28;20040;-74
2023/04/07 03:10:40;;;;;;;33.65;19.13;;;;;;;;;;5083326;28;20036;-74
2023/04/07 03:13:07;;;;;;;32.53;20.42;;;;;;;;;;5092221;28;20059;-74
2023/04/07 03:15:33;;;;;;;29.73;18.50;;;;;;;;;;5093016;28;20044;-75
2023/04/07 03:17:59;;;;;;;30.52;19.23;;;;;;;;;;5093250;28;20044;-75
2023/04/07 03:20:26;;;;;;;30.70;19.33;;;;;;;;;;5092075;28;20051;-75
2023/04/07 03:22:52;;;;;;;32.97;19.10;;;;;;;;;;5092954;28;20420;-75
2023/04/07 03:25:18;;;;;;;31.70;19.42;;;;;;;;;;5092342;28;20596;-73
2023/04/07 03:27:44;;;;;;;34.65;20.42;;;;;;;;;;5091746;28;20367;-74
2023/04/07 03:30:10;;;;;;;31.33;18.73;;;;;;;;;;5084125;28;20049;-74
2023/04/07 03:32:36;;;;;;;29.75;17.67;;;;;;;;;;5076084;28;20048;-74
2023/04/07 03:35:02;;;;;;;31.55;19.50;;;;;;;;;;5077626;28;20044;-74
2023/04/07 03:37:28;;;;;;;31.42;19.80;;;;;;;;;;5093115;28;20135;-74
2023/04/07 03:39:54;;;;;;;30.73;18.42;;;;;;;;;;5093000;28;20119;-74
2023/04/07 03:42:21;;;;;;;33.67;20.45;;;;;;;;;;5087803;28;20492;-74
2023/04/07 03:44:47;;;;;;;30.50;18.58;;;;;;;;;;5089476;28;20132;-74
2023/04/07 03:47:13;;;;;;;34.17;19.30;;;;;;;;;;5096227;28;20402;-74
2023/04/07 03:49:39;;;;;;;33.33;20.05;;;;;;;;;;5096311;28;20044;-74
2023/04/07 03:52:05;;;;;;;32.85;19.00;;;;;;;;;;5094716;28;20119;-74
2023/04/07 03:54:31;;;;;;;34.58;19.52;;;;;;;;;;5091872;28;20044;-74
2023/04/07 03:56:57;;;;;;;31.23;18.52;;;;;;;;;;5083176;28;20085;-75
2023/04/07 03:59:23;;;;;;;33.00;18.65;;;;;;;;;;5095120;28;20040;-75
2023/04/07 04:01:49;;;;;;;32.13;18.40;;;;;;;;;;5093105;28;20044;-75
2023/04/07 04:04:15;;;;;;;28.52;17.73;;;;;;;;;;5075994;28;20055;-75
2023/04/07 04:06:41;;;;;;;25.83;16.25;;;;;;;;;;5075747;28;20472;-74
2023/04/07 04:09:07;;;;;;;25.90;16.00;;;;;;;;;;5076867;28;20036;-75
2023/04/07 04:11:34;;;;;;;23.48;15.32;;;;;;;;;;5078579;28;20420;-75
2023/04/07 04:14:00;;;;;;;21.27;14.20;;;;;;;;;;5081316;28;20040;-75
2023/04/07 04:16:26;;;;;;;22.88;14.45;;;;;;;;;;5083600;28;20044;-75
2023/04/07 04:18:55;;;;;;;23.30;14.88;;;;;;;;;;5095191;28;20394;-75
2023/04/07 04:21:21;;;;;;;22.30;14.27;;;;;;;;;;5095820;28;20040;-75
2023/04/07 04:23:47;;;;;;;21.95;13.15;;;;;;;;;;5095068;28;20123;-75
2023/04/07 04:26:13;;;;;;;21.73;13.90;;;;;;;;;;5080089;28;20068;-75
2023/04/07 04:28:39;;;;;;;21.52;13.57;;;;;;;;;;5075462;28;20044;-75
2023/04/07 04:31:05;;;;;;;20.20;12.88;;;;;;;;;;5075623;28;20119;-75
2023/04/07 04:33:31;;;;;;;19.83;13.40;;;;;;;;;;5089713;28;20495;-75
2023/04/07 04:35:57;;;;;;;21.13;13.10;;;;;;;;;;5095289;28;20076;-75
2023/04/07 04:38:24;;;;;;;21.85;13.88;;;;;;;;;;5088690;28;20036;-75
2023/04/07 04:40:50;;;;;;;24.40;14.82;;;;;;;;;;5074622;28;20410;-75
2023/04/07 04:43:16;;;;;;;24.42;14.43;;;;;;;;;;5075045;28;20113;-75
2023/04/07 04:45:42;;;;;;;22.10;15.10;;;;;;;;;;5075229;28;20047;-75
2023/04/07 04:48:08;;;;;;;25.52;15.68;;;;;;;;;;5079504;28;20035;-75
2023/04/07 04:50:35;;;;;;;25.67;16.60;;;;;;;;;;5093766;28;20097;-75
2023/04/07 04:53:01;;;;;;;28.52;17.95;;;;;;;;;;5094911;28;20431;-75
2023/04/07 04:55:27;;;;;;;30.75;18.35;;;;;;;;;;5078240;28;20048;-75
2023/04/07 04:57:53;;;;;;;30.17;18.92;;;;;;;;;;5082171;28;20040;-75
2023/04/07 05:00:20;;;;;;;31.77;19.13;;;;;;;;;;5091372;28;20482;-74
2023/04/07 05:02:46;;;;;;;28.20;17.70;;;;;;;;;;5074650;28;20044;-75
2023/04/07 05:05:12;;;;;;;30.63;19.10;;;;;;;;;;5074707;28;20048;-75
2023/04/07 05:07:41;;;;;;;31.70;18.67;;;;;;;;;;5091891;28;20444;-75
2023/04/07 05:10:08;;;;;;;29.67;19.02;;;;;;;;;;5094662;28;20478;-75
2023/04/07 05:12:34;;;;;;;31.05;19.00;;;;;;;;;;5093225;28;20440;-75
2023/04/07 05:15:00;;;;;;;29.70;18.35;;;;;;;;;;5094925;28;20048;-75
2023/04/07 05:17:26;;;;;;;29.27;19.23;;;;;;;;;;5093305;28;20059;-75
2023/04/07 05:19:52;;;;;;;26.70;18.05;;;;;;;;;;5081151;28;20052;-75
2023/04/07 05:22:18;;;;;;;27.90;18.50;;;;;;;;;;5073663;28;20041;-75
2023/04/07 05:24:44;;;;;;;26.52;17.73;;;;;;;;;;5074127;28;20140;-75
2023/04/07 05:27:11;;;;;;;25.35;18.35;;;;;;;;;;5075307;28;20045;-75
2023/04/07 05:29:37;;;;;;;27.42;17.88;;;;;;;;;;5084544;28;20047;-74
2023/04/07 05:32:04;;;;;;;28.45;18.63;;;;;;;;;;5089604;28;20044;-74
2023/04/07 05:34:30;;;;;;;26.10;17.02;;;;;;;;;;5088191;28;20105;-74
2023/04/07 05:36:56;;;;;;;24.63;17.42;;;;;;;;;;5081838;28;20414;-74
2023/04/07 05:39:22;;;;;;;25.83;17.92;;;;;;;;;;5073044;28;20055;-74
2023/04/07 05:41:48;;;;;;;27.23;18.15;;;;;;;;;;5074163;28;20049;-74
2023/04/07 05:44:17;;;;;;;25.92;17.45;;;;;;;;;;5072633;28;20123;-74
2023/04/07 05:46:43;;;;;;;23.08;16.45;;;;;;;;;;5072600;28;20048;-74
2023/04/07 05:49:09;;;;;;;26.85;18.58;;;;;;;;;;5085589;28;20495;-74
2023/04/07 05:51:35;;;;;;;25.35;17.17;;;;;;;;;;5072409;28;20055;-74
2023/04/07 05:54:05;;;;;;;24.02;17.05;;;;;;;;;;5072717;28;20534;-74
2023/04/07 05:56:31;;;;;;;24.73;16.77;;;;;;;;;;5072726;28;20056;-74
2023/04/07 05:58:59;;;;;;;26.70;18.38;;;;;;;;;;5086864;28;20040;-74
2023/04/07 06:01:26;;;;;;;25.95;17.95;;;;;;;;;;5080806;28;20052;-74
2023/04/07 06:03:52;;;;;;;29.55;19.33;;;;;;;;;;5079667;28;20048;-74
2023/04/07 06:06:18;;;;;;;28.13;18.80;;;;;;;;;;5073945;28;20072;-74
2023/04/07 06:08:44;;;;;;;26.10;17.38;;;;;;;;;;5087397;28;20044;-74
2023/04/07 06:11:10;;;;;;;26.52;18.23;;;;;;;;;;5099352;28;20044;-74
2023/04/07 06:13:36;;;;;;;27.80;18.98;;;;;;;;;;5086956;28;20072;-74
2023/04/07 06:16:02;;;;;;;27.15;16.90;;;;;;;;;;5073952;28;20059;-75
2023/04/07 06:18:29;;;;;;;30.00;19.23;;;;;;;;;;5082536;28;20457;-75
2023/04/07 06:20:55;;;;;;;30.02;19.55;;;;;;;;;;5081354;28;20083;-75
2023/04/07 06:23:21;;;;;;;29.25;19.88;;;;;;;;;;5093423;28;20048;-75
2023/04/07 06:25:51;;;;;;;29.42;18.98;;;;;;;;;;5093956;28;20447;-77
2023/04/07 06:28:18;;;;;;;29.35;19.33;;;;;;;;;;5084456;28;20043;-75
2023/04/07 06:30:44;;;;;;;29.40;19.55;;;;;;;;;;5075095;28;20486;-75
2023/04/07 06:33:10;;;;;;;32.45;21.05;;;;;;;;;;5073606;28;20053;-75
2023/04/07 06:35:36;;;;;;;27.02;18.73;;;;;;;;;;5089328;28;20036;-75
2023/04/07 06:38:02;;;;;;;31.83;20.20;;;;;;;;;;5087947;28;20044;-75
2023/04/07 06:40:28;;;;;;;26.88;18.55;;;;;;;;;;5092099;28;20067;-75
2023/04/07 06:42:55;;;;;;;28.58;19.17;;;;;;;;;;5084774;28;20044;-76
2023/04/07 06:45:21;;;;;;;30.35;21.02;;;;;;;;;;5074111;28;20052;-76
2023/04/07 06:47:47;;;;;;;29.45;18.80;;;;;;;;;;5091842;28;20089;-76
2023/04/07 06:50:13;;;;;;;30.13;20.23;;;;;;;;;;5093927;28;20048;-74
2023/04/07 06:52:39;;;;;;;27.08;17.80;;;;;;;;;;5093610;28;20130;-74
2023/04/07 06:55:06;;;;;;;28.65;19.02;;;;;;;;;;5093570;28;20072;-74
2023/04/07 06:57:33;;;;;;;29.13;18.55;;;;;;;;;;5088558;28;20049;-74
2023/04/07 06:59:59;;;;;;;31.38;21.30;;;;;;;;;;5075472;28;20079;-74
2023/04/07 07:02:25;;;;;;;27.67;17.40;;;;;;;;;;5092336;28;20082;-74
2023/04/07 07:04:51;;;;;;;26.70;17.90;;;;;;;;;;5093806;28;20040;-74
2023/04/07 07:07:17;;;;;;;28.60;19.02;;;;;;;;;;5096210;28;20084;-75
2023/04/07 07:09:43;;;;;;;26.73;18.50;;;;;;;;;;5078880;28;20119;-75
2023/04/07 07:12:09;;;;;;;26.42;17.33;;;;;;;;;;5090910;28;20044;-74
2023/04/07 07:14:35;;;;;;;26.48;18.38;;;;;;;;;;5097149;28;20050;-74
2023/04/07 07:17:01;;;;;;;25.48;18.13;;;;;;;;;;5097254;28;20194;-74
2023/04/07 07:19:28;;;;;;;26.48;18.02;;;;;;;;;;5086887;28;20398;-75
2023/04/07 07:21:54;;;;;;;26.67;17.00;;;;;;;;;;5092923;28;20055;-75
2023/04/07 07:24:20;;;;;;;24.98;16.65;;;;;;;;;;5093001;28;20048;-75
2023/04/07 07:26:46;;;;;;;24.50;16.73;;;;;;;;;;5093194;28;20040;-77
2023/04/07 07:29:12;;;;;;;24.23;16.63;;;;;;;;;;5089788;28;20051;-76
2023/04/07 07:31:38;;;;;;;24.08;17.70;;;;;;;;;;5082039;28;20135;-78
2023/04/07 07:34:04;;;;;;;27.73;17.48;;;;;;;;;;5084525;28;20123;-76
2023/04/07 07:36:31;;;;;;;24.15;16.45;;;;;;;;;;5086712;28;20051;-76
2023/04/07 07:38:57;;;;;;;24.23;16.42;;;;;;;;;;5096176;28;20044;-76
2023/04/07 07:41:23;;;;;;;23.35;15.90;;;;;;;;;;5076717;28;20422;-76
2023/04/07 07:43:49;;;;;;;24.85;16.65;;;;;;;;;;5077825;28;20173;-77
2023/04/07 07:46:15;;;;;;;24.20;17.80;;;;;;;;;;5091858;28;20036;-76
2023/04/07 07:48:41;;;;;;;22.50;15.35;;;;;;;;;;5088125;28;20063;-77
2023/04/07 07:51:07;;;;;;;24.88;17.35;;;;;;;;;;5082403;28;20079;-77
2023/04/07 07:53:33;;;;;;;24.05;17.35;;;;;;;;;;5079265;28;20040;-79
2023/04/07 07:56:00;;;;;;;25.40;17.70;;;;;;;;;;5087666;28;20048;-77
2023/04/07 07:58:26;;;;;;;23.33;16.42;;;;;;;;;;5096637;28;20075;-76
2023/04/07 08:00:52;;;;;;;25.02;16.60;;;;;;;;;;5092250;28;20044;-76
2023/04/07 08:03:21;;;;;;;23.75;16.92;;;;;;;;;;5085422;28;20485;-76
2023/04/07 08:05:48;;;;;;;22.95;16.60;;;;;;;;;;5096295;28;20048;-76
2023/04/07 08:08:14;;;;;;;23.35;15.57;;;;;;;;;;5079930;28;20089;-76
2023/04/07 08:10:40;;;;;;;24.58;17.52;;;;;;;;;;5077909;28;20037;-76
2023/04/07 08:13:06;;;;;;;22.27;15.82;;;;;;;;;;5074442;28;20059;-76
2023/04/07 08:15:32;;;;;;;21.70;15.10;;;;;;;;;;5075829;28;20120;-76
2023/04/07 08:17:59;;;;;;;19.80;15.18;;;;;;;;;;5075904;28;20080;-76
2023/04/07 08:20:26;;;;;;;22.25;15.85;;;;;;;;;;5083896;28;20544;-76
2023/04/07 08:22:52;;;;;;;19.40;15.23;;;;;;;;;;5091701;28;20098;-76
2023/04/07 08:25:19;;;;;;;22.55;15.02;;;;;;;;;;5095829;28;20044;-76
2023/04/07 08:27:45;;;;;;;20.20;14.63;;;;;;;;;;5095742;28;20460;-76
2023/04/07 08:30:12;;;;;;;19.90;14.68;;;;;;;;;;5089170;28;20044;-76
2023/04/07 08:32:39;;;;;;;19.67;13.98;;;;;;;;;;5085253;28;20047;-76
2023/04/07 08:35:05;;;;;;;18.67;13.85;;;;;;;;;;5090613;28;20047;-76
2023/04/07 08:37:32;;;;;;;19.35;13.93;;;;;;;;;;5090077;28;20059;-76
2023/04/07 08:39:59;;;;;;;21.10;14.75;;;;;;;;;;5082793;28;20119;-76
2023/04/07 08:42:28;;;;;;;19.98;13.85;;;;;;;;;;5085649;28;20051;-76
2023/04/07 08:44:57;;;;;;;19.60;14.45;;;;;;;;;;5085786;28;20576;-76
2023/04/07 08:47:25;;;;;;;18.67;13.15;;;;;;;;;;5084286;28;20474;-76
2023/04/07 08:49:51;;;;;;;16.92;13.35;;;;;;;;;;5088856;28;20044;-75
2023/04/07 08:52:21;;;;;;;18.80;13.77;;;;;;;;;;5089980;28;20072;-75
2023/04/07 08:54:48;;;;;;;17.13;13.18;;;;;;;;;;5093869;28;20063;-75
2023/04/07 08:57:15;;;;;;;18.75;13.25;;;;;;;;;;5083961;28;20050;-75
2023/04/07 08:59:44;;;;;;;16.73;12.93;;;;;;;;;;5081600;28;20090;-75
2023/04/07 09:02:10;;;;;;;16.85;12.48;;;;;;;;;;5087226;28;20050;-75
2023/04/07 09:04:36;;;;;;;19.35;12.50;;;;;;;;;;5089126;28;20502;-75
2023/04/07 09:07:02;;;;;;;14.93;11.75;;;;;;;;;;5086770;28;20066;-75
2023/04/07 09:09:29;;;;;;;14.32;11.13;;;;;;;;;;5089393;28;20093;-75
2023/04/07 09:11:55;;;;;;;14.85;11.95;;;;;;;;;;5093399;28;20452;-75
2023/04/07 09:14:21;;;;;;;15.95;12.15;;;;;;;;;;5098922;28;20071;-77
2023/04/07 09:16:47;;;;;;;15.35;11.80;;;;;;;;;;5098277;28;20056;-76
2023/04/07 09:19:13;;;;;;;16.95;12.32;;;;;;;;;;5088712;28;20048;-74
2023/04/07 09:21:50;;;;;;;16.77;11.82;;;;;;;;;;5095849;28;20040;-78
2023/04/07 09:24:42;;;;;;;15.45;11.70;;;;;;;;;;5092240;28;20035;-74
2023/04/07 09:27:13;;;;;;;13.77;11.05;;;;;;;;;;5070254;28;20110;-74
2023/04/07 09:29:41;;;;;;;13.18;9.85;;;;;;;;;;5075391;28;20502;-74
2023/04/07 09:32:07;;;;;;;13.80;11.38;;;;;;;;;;5076454;28;20123;-78
2023/04/07 09:34:34;;;;;;;12.95;10.27;;;;;;;;;;5080163;28;20040;-80
2023/04/07 09:37:01;;;;;;;14.10;11.02;;;;;;;;;;5074630;28;20047;-74
2023/04/07 09:39:27;;;;;;;13.32;10.05;;;;;;;;;;5085891;28;20116;-75
2023/04/07 09:41:53;;;;;;;12.25;10.25;;;;;;;;;;5114922;28;20122;-78
2023/04/07 09:44:23;;;;;;;11.90;9.38;;;;;;;;;;5089390;28;20041;-76
2023/04/07 09:46:54;;;;;;;13.02;9.32;;;;;;;;;;5083577;28;20154;-76
2023/04/07 09:49:20;;;;;;;11.25;9.00;;;;;;;;;;5081286;28;20052;-76
2023/04/07 09:51:56;;;;;;;14.02;10.43;;;;;;;;;;5077157;28;20519;-76
2023/04/07 09:54:40;;;;;;;13.25;9.50;;;;;;;;;;5090089;28;20084;-76
2023/04/07 09:57:08;;;;;;;10.40;8.77;;;;;;;;;;5090090;28;20040;-75
2023/04/07 09:59:35;;;;;;;12.73;9.85;;;;;;;;;;5092087;28;20556;-75
2023/04/07 10:02:01;;;;;;;12.40;9.48;;;;;;;;;;5080152;28;20063;-75
2023/04/07 10:04:30;;;;;;;12.23;9.48;;;;;;;;;;5083256;28;20040;-76
2023/04/07 10:06:57;;;;;;;11.13;9.00;;;;;;;;;;5086749;28;20084;-75
2023/04/07 10:09:25;;;;;;;11.45;9.23;;;;;;;;;;5085067;28;20056;-75
2023/04/07 10:11:52;;;;;;;10.23;8.30;;;;;;;;;;5085301;28;20052;-76
2023/04/07 10:14:18;;;;;;;10.23;7.70;;;;;;;;;;5083473;28;20456;-79
2023/04/07 10:16:46;;;;;;;10.23;8.45;;;;;;;;;;5085088;28;20132;-76
2023/04/07 10:19:12;;;;;;;9.50;8.02;;;;;;;;;;5078987;28;20036;-76
2023/04/07 10:21:42;;;;;;;9.38;7.70;;;;;;;;;;5080900;28;20387;-76
2023/04/07 10:24:26;;;;;;;9.02;7.65;;;;;;;;;;5093728;28;20527;-76
2023/04/07 10:26:55;;;;;;;9.48;7.72;;;;;;;;;;5085822;28;20044;-76
2023/04/07 10:29:23;;;;;;;9.98;7.80;;;;;;;;;;5088101;28;20048;-76
2023/04/07 10:31:49;;;;;;;10.20;8.15;;;;;;;;;;5081607;28;20131;-76
2023/04/07 10:34:16;;;;;;;11.65;9.50;;;;;;;;;;5078906;28;20478;-76
2023/04/07 10:37:00;;;;;;;11.43;9.15;;;;;;;;;;5090195;28;20122;-76
2023/04/07 10:39:27;;;;;;;11.63;9.65;;;;;;;;;;5081719;28;20127;-76
2023/04/07 10:41:53;;;;;;;12.25;9.20;;;;;;;;;;5096625;28;20048;-76
2023/04/07 10:44:51;;;;;;;14.18;10.32;;;;;;;;;;5091464;28;20071;-76
2023/04/07 10:47:18;;;;;;;11.45;9.60;;;;;;;;;;5051775;28;20436;-81
2023/04/07 10:50:03;;;;;;;12.57;9.98;;;;;;;;;;5096660;28;20462;-75
2023/04/07 10:52:29;;;;;;;10.80;9.35;;;;;;;;;;5098901;28;20051;-76
2023/04/07 10:55:14;;;;;;;12.50;10.10;;;;;;;;;;5088865;28;20052;-75
2023/04/07 10:58:00;;;;;;;12.20;9.45;;;;;;;;;;5087415;28;20082;-75
2023/04/07 11:00:26;;;;;;;12.65;9.70;;;;;;;;;;5090590;28;20055;-76
2023/04/07 11:02:52;;;;;;;12.60;10.27;;;;;;;;;;5096044;28;20475;-75
2023/04/07 11:05:22;;;;;;;11.85;9.48;;;;;;;;;;5085770;28;20036;-75
2023/04/07 11:07:49;;;;;;;12.00;9.20;;;;;;;;;;5089984;28;20044;-76
2023/04/07 11:10:17;;;;;;;12.30;9.32;;;;;;;;;;5097730;28;20119;-76
2023/04/07 11:12:43;;;;;;;11.63;9.73;;;;;;;;;;5082952;28;20048;-76
2023/04/07 11:15:16;;;;;;;11.52;8.55;;;;;;;;;;5085203;28;20418;-76
2023/04/07 11:17:42;;;;;;;10.38;9.02;;;;;;;;;;5095014;28;20048;-76
2023/04/07 11:20:09;;;;;;;10.25;8.13;;;;;;;;;;5079546;28;20040;-76
2023/04/07 11:22:36;;;;;;;10.68;8.65;;;;;;;;;;5082969;28;20091;-76
2023/04/07 11:25:02;;;;;;;11.95;9.25;;;;;;;;;;5078708;28;20048;-76
2023/04/07 11:27:28;;;;;;;12.38;10.55;;;;;;;;;;5077988;28;20048;-76
2023/04/07 11:29:56;;;;;;;13.02;10.25;;;;;;;;;;5080434;28;20107;-76
2023/04/07 11:32:24;;;;;;;13.52;9.73;;;;;;;;;;5087101;28;20040;-76
2023/04/07 11:34:51;;;;;;;12.80;10.02;;;;;;;;;;5090787;28;20406;-76
2023/04/07 11:37:21;;;;;;;13.05;10.48;;;;;;;;;;5082889;28;20049;-76
2023/04/07 11:39:54;;;;;;;12.32;9.65;;;;;;;;;;5076919;28;20044;-76
2023/04/07 11:42:37;;;;;;;11.38;9.10;;;;;;;;;;5081995;28;20542;-76
2023/04/07 11:45:03;;;;;;;11.55;9.20;;;;;;;;;;5082231;28;20032;-75
2023/04/07 11:47:40;;;;;;;11.10;9.20;;;;;;;;;;5079876;28;20124;-75
2023/04/07 11:50:07;;;;;;;12.27;9.30;;;;;;;;;;5076855;28;20053;-75
2023/04/07 11:52:43;;;;;;;10.18;8.27;;;;;;;;;;5077731;28;20131;-76
2023/04/07 11:55:23;;;;;;;8.18;6.75;;;;;;;;;;5082109;28;20047;-76
2023/04/07 11:57:52;;;;;;;9.10;7.15;;;;;;;;;;5091802;28;20051;-76
2023/04/07 12:00:21;;;;;;;8.20;6.70;;;;;;;;;;5090016;28;20042;-76
2023/04/07 12:02:48;;;;;;;8.63;7.30;;;;;;;;;;5089962;28;20040;-76
2023/04/07 12:05:14;;;;;;;10.32;7.15;;;;;;;;;;5090597;28;20040;-76
2023/04/07 12:07:52;;;;;;;8.93;6.93;;;;;;;;;;5095408;28;20131;-75
2023/04/07 12:10:24;;;;;;;9.75;8.50;;;;;;;;;;5082725;28;20044;-75
2023/04/07 12:12:50;;;;;;;10.10;8.05;;;;;;;;;;5089305;28;20054;-76
2023/04/07 12:15:17;;;;;;;10.48;8.70;;;;;;;;;;5075807;28;20433;-75
2023/04/07 12:17:47;;;;;;;9.57;8.57;;;;;;;;;;5072146;28;20052;-75
2023/04/07 12:20:13;;;;;;;9.35;8.02;;;;;;;;;;5083916;28;20036;-75
2023/04/07 12:22:40;;;;;;;10.48;9.02;;;;;;;;;;5082426;28;20037;-75
2023/04/07 12:25:06;;;;;;;10.95;8.60;;;;;;;;;;5092459;28;20040;-75
2023/04/07 12:27:32;;;;;;;9.32;8.32;;;;;;;;;;5098437;28;20040;-75
2023/04/07 12:29:58;;;;;;;10.48;8.52;;;;;;;;;;5089967;28;20044;-75
2023/04/07 12:32:24;;;;;;;11.10;8.93;;;;;;;;;;5090653;28;20124;-75
2023/04/07 12:34:51;;;;;;;10.90;9.05;;;;;;;;;;5086504;28;20407;-76
2023/04/07 12:37:18;;;;;;;10.88;9.15;;;;;;;;;;5077281;28;20119;-76
2023/04/07 12:39:44;;;;;;;10.18;9.07;;;;;;;;;;5091226;28;20040;-75
2023/04/07 12:42:10;;;;;;;10.32;8.85;;;;;;;;;;5086480;28;20044;-75
2023/04/07 12:44:37;;;;;;;10.93;9.32;;;;;;;;;;5089797;28;20049;-75
2023/04/07 12:47:03;;;;;;;11.45;9.10;;;;;;;;;;5087273;28;20043;-76
2023/04/07 12:49:29;;;;;;;11.02;9.60;;;;;;;;;;5076937;28;20375;-75
2023/04/07 12:51:56;;;;;;;10.30;8.98;;;;;;;;;;5091946;28;20378;-75
2023/04/07 12:54:22;;;;;;;10.63;9.27;;;;;;;;;;5087454;28;20043;-75
2023/04/07 12:56:49;;;;;;;10.98;9.23;;;;;;;;;;5086866;28;20406;-76
2023/04/07 12:59:15;;;;;;;10.27;8.85;;;;;;;;;;5090240;28;20391;-75
2023/04/07 13:01:41;;;;;;;11.20;9.50;;;;;;;;;;5078386;28;20478;-75
2023/04/07 13:04:08;;;;;;;10.52;8.98;;;;;;;;;;5089142;28;20496;-75
2023/04/07 13:06:35;;;;;;;11.63;9.50;;;;;;;;;;5080020;28;20056;-74
2023/04/07 13:09:01;;;;;;;11.75;9.27;;;;;;;;;;5072727;28;20143;-74
2023/04/07 13:11:27;;;;;;;12.10;9.30;;;;;;;;;;5102164;28;20044;-74
2023/04/07 13:13:53;;;;;;;10.30;8.60;;;;;;;;;;5091100;28;20059;-74
2023/04/07 13:16:19;;;;;;;11.48;9.40;;;;;;;;;;5078856;28;20052;-74
2023/04/07 13:18:46;;;;;;;9.30;8.25;;;;;;;;;;5094890;28;20071;-75
2023/04/07 13:21:12;;;;;;;9.82;8.45;;;;;;;;;;5094608;28;20060;-74
2023/04/07 13:23:38;;;;;;;10.23;8.63;;;;;;;;;;5094140;28;20070;-74
2023/04/07 13:26:04;;;;;;;8.82;7.90;;;;;;;;;;5085738;28;20048;-74
2023/04/07 13:28:30;;;;;;;9.85;8.85;;;;;;;;;;5082404;28;20059;-74
2023/04/07 13:30:56;;;;;;;11.10;9.57;;;;;;;;;;5094515;28;20047;-74
2023/04/07 13:33:22;;;;;;;9.55;8.55;;;;;;;;;;5093037;28;20044;-74
2023/04/07 13:35:48;;;;;;;10.93;8.75;;;;;;;;;;5090757;28;20089;-74
2023/04/07 13:38:14;;;;;;;10.65;8.45;;;;;;;;;;5075093;28;20041;-74
2023/04/07 13:40:40;;;;;;;11.50;9.32;;;;;;;;;;5084776;28;20119;-74
2023/04/07 13:43:06;;;;;;;11.20;8.88;;;;;;;;;;5092673;28;20047;-75
2023/04/07 13:45:32;;;;;;;10.85;9.00;;;;;;;;;;5096719;28;20055;-75
2023/04/07 13:47:59;;;;;;;10.25;8.98;;;;;;;;;;5094112;28;20043;-74
2023/04/07 13:50:25;;;;;;;9.25;8.25;;;;;;;;;;5094465;28;20119;-75
2023/04/07 13:52:51;;;;;;;10.73;9.55;;;;;;;;;;5091098;28;20051;-75
2023/04/07 13:55:19;;;;;;;11.88;9.38;;;;;;;;;;5094106;28;20054;-75
2023/04/07 13:57:45;;;;;;;10.65;9.15;;;;;;;;;;5094043;28;20502;-75
2023/04/07 14:00:12;;;;;;;9.57;8.48;;;;;;;;;;5077063;28;20447;-76
2023/04/07 14:02:38;;;;;;;11.00;9.00;;;;;;;;;;5077197;28;20048;-75
2023/04/07 14:05:04;;;;;;;10.57;9.13;;;;;;;;;;5091290;28;20418;-75
2023/04/07 14:07:30;;;;;;;10.52;9.20;;;;;;;;;;5091824;28;20048;-75
2023/04/07 14:09:57;;;;;;;10.57;9.18;;;;;;;;;;5088545;28;20044;-75
2023/04/07 14:12:23;;;;;;;10.38;9.27;;;;;;;;;;5083078;28;20480;-75
2023/04/07 14:14:51;;;;;;;10.43;9.02;;;;;;;;;;5085283;28;20044;-75
2023/04/07 14:17:17;;;;;;;10.98;9.35;;;;;;;;;;5072244;28;20080;-75
2023/04/07 14:19:43;;;;;;;9.38;8.18;;;;;;;;;;5091437;28;20051;-75
2023/04/07 14:22:10;;;;;;;10.07;8.60;;;;;;;;;;5092966;28;20047;-75